createdAt,value
2017-06-11T00:01:56.369Z,54.49
2017-06-11T00:04:24.335Z,55.45
2017-06-11T00:06:51.966Z,55.58
2017-06-11T00:09:19.655Z,55.85
2017-06-11T00:11:49.394Z,55.80
2017-06-11T00:14:17.003Z,55.76
2017-06-11T00:16:44.572Z,55.05
2017-06-11T00:19:12.097Z,54.84
2017-06-11T00:21:39.938Z,54.85
2017-06-11T00:24:07.506Z,55.03
2017-06-11T00:26:35.053Z,55.07
2017-06-11T00:29:02.587Z,55.55
2017-06-11T00:31:30.181Z,55.97
2017-06-11T00:33:57.718Z,57.09
2017-06-11T00:36:25.257Z,56.18
2017-06-11T00:38:52.837Z,56.07
2017-06-11T00:41:20.376Z,55.15
2017-06-11T00:43:47.915Z,56.13
2017-06-11T00:46:15.509Z,56.54
2017-06-11T00:48:43.049Z,56.73
2017-06-11T00:51:10.586Z,57.65
2017-06-11T00:53:38.162Z,57.83
2017-06-11T00:56:05.698Z,57.22
2017-06-11T00:58:33.590Z,57.69
2017-06-11T01:01:01.182Z,57.56
2017-06-11T01:03:28.718Z,58.12
2017-06-11T01:05:56.249Z,58.79
2017-06-11T01:08:23.822Z,59.35
2017-06-11T01:10:51.365Z,60.74
2017-06-11T01:13:18.914Z,60.76
2017-06-11T01:15:46.482Z,60.81
2017-06-11T01:18:14.012Z,60.72
2017-06-11T01:20:41.542Z,59.99
2017-06-11T01:23:09.138Z,60.00
2017-06-11T01:25:36.694Z,61.19
2017-06-11T01:28:04.271Z,60.68
2017-06-11T01:30:31.963Z,61.64
2017-06-11T01:32:59.496Z,62.01
2017-06-11T01:35:27.047Z,62.66
2017-06-11T01:37:54.628Z,61.68
2017-06-11T01:40:22.159Z,61.62
2017-06-11T01:42:49.712Z,60.56
2017-06-11T01:45:17.302Z,60.31
2017-06-11T01:47:44.838Z,60.68
2017-06-11T01:50:12.379Z,61.36
2017-06-11T01:52:39.970Z,60.26
2017-06-11T01:55:07.505Z,60.55
2017-06-11T01:57:35.033Z,60.81
2017-06-11T02:00:02.597Z,61.43
2017-06-11T02:02:30.520Z,61.16
2017-06-11T02:04:58.318Z,60.68
2017-06-11T02:07:25.852Z,61.56
2017-06-11T02:09:53.423Z,61.24
2017-06-11T02:12:20.958Z,62.05
2017-06-11T02:14:48.498Z,64.39
2017-06-11T02:17:16.066Z,67.25
2017-06-11T02:19:43.598Z,68.66
2017-06-11T02:22:11.132Z,69.08
2017-06-11T02:24:38.711Z,70.83
2017-06-11T02:27:06.254Z,71.42
2017-06-11T02:29:34.378Z,71.50
2017-06-11T02:32:02.078Z,71.73
2017-06-11T02:34:29.623Z,73.08
2017-06-11T02:36:57.157Z,74.18
2017-06-11T02:39:24.723Z,74.53
2017-06-11T02:41:52.261Z,73.61
2017-06-11T02:44:19.800Z,73.19
2017-06-11T02:46:47.396Z,73.53
2017-06-11T02:49:14.938Z,71.98
2017-06-11T02:51:42.486Z,71.36
2017-06-11T02:54:10.054Z,71.81
2017-06-11T02:56:37.589Z,71.78
2017-06-11T02:59:05.129Z,72.29
2017-06-11T03:01:32.711Z,72.41
2017-06-11T03:04:00.245Z,72.00
2017-06-11T03:06:27.777Z,71.32
2017-06-11T03:08:55.352Z,70.60
2017-06-11T03:11:22.927Z,70.06
2017-06-11T03:13:50.466Z,70.75
2017-06-11T03:16:18.030Z,70.30
2017-06-11T03:18:45.580Z,71.20
2017-06-11T03:21:13.109Z,71.12
2017-06-11T03:23:40.678Z,71.16
2017-06-11T03:26:08.206Z,70.42
2017-06-11T03:28:35.743Z,69.73
2017-06-11T03:31:03.329Z,69.27
2017-06-11T03:33:30.893Z,69.82
2017-06-11T03:35:58.428Z,68.79
2017-06-11T03:38:25.997Z,68.20
2017-06-11T03:40:53.551Z,68.79
2017-06-11T03:43:21.157Z,68.25
2017-06-11T03:45:48.719Z,69.15
2017-06-11T03:48:16.259Z,69.58
2017-06-11T03:50:43.789Z,68.65
2017-06-11T03:53:11.362Z,68.42
2017-06-11T03:55:38.901Z,69.20
2017-06-11T03:58:06.434Z,70.26
2017-06-11T04:00:34.011Z,69.53
2017-06-11T04:03:01.539Z,71.83
2017-06-11T04:05:29.074Z,70.99
2017-06-11T04:07:56.664Z,73.00
2017-06-11T04:10:24.214Z,74.07
2017-06-11T04:12:51.750Z,73.53
2017-06-11T04:15:19.313Z,72.89
2017-06-11T04:17:46.921Z,73.81
2017-06-11T04:20:14.452Z,73.16
2017-06-11T04:22:42.013Z,73.16
2017-06-11T04:25:09.545Z,72.10
2017-06-11T04:27:37.094Z,71.16
2017-06-11T04:30:07.036Z,71.71
2017-06-11T04:32:34.570Z,71.53
2017-06-11T04:35:02.109Z,70.41
2017-06-11T04:37:29.669Z,69.26
2017-06-11T04:39:57.210Z,69.76
2017-06-11T04:42:24.777Z,70.25
2017-06-11T04:44:52.348Z,70.06
2017-06-11T04:47:19.894Z,68.81
2017-06-11T04:49:47.430Z,71.18
2017-06-11T04:52:15.010Z,70.89
2017-06-11T04:54:42.562Z,70.15
2017-06-11T04:57:10.106Z,69.92
2017-06-11T04:59:37.686Z,69.66
2017-06-11T05:02:05.287Z,70.46
2017-06-11T05:04:32.828Z,69.99
2017-06-11T05:07:00.370Z,70.14
2017-06-11T05:09:27.957Z,69.70
2017-06-11T05:11:55.494Z,69.34
2017-06-11T05:14:23.202Z,70.88
2017-06-11T05:16:50.774Z,69.94
2017-06-11T05:19:18.317Z,69.74
2017-06-11T05:21:45.873Z,69.12
2017-06-11T05:24:13.446Z,69.44
2017-06-11T05:26:40.986Z,68.61
2017-06-11T05:29:08.521Z,68.62
2017-06-11T05:31:36.135Z,68.65
2017-06-11T05:34:03.698Z,67.86
2017-06-11T05:36:31.238Z,68.44
2017-06-11T05:38:58.815Z,67.75
2017-06-11T05:41:26.347Z,68.87
2017-06-11T05:43:53.885Z,68.56
2017-06-11T05:46:21.479Z,69.08
2017-06-11T05:48:49.019Z,69.08
2017-06-11T05:51:16.603Z,67.86
2017-06-11T05:53:44.174Z,68.17
2017-06-11T05:56:11.709Z,68.19
2017-06-11T05:58:39.267Z,67.75
2017-06-11T06:01:06.838Z,67.95
2017-06-11T06:03:34.421Z,67.32
2017-06-11T06:06:01.962Z,67.41
2017-06-11T06:08:29.538Z,67.82
2017-06-11T06:10:57.083Z,68.17
2017-06-11T06:13:24.611Z,67.86
2017-06-11T06:15:52.189Z,68.51
2017-06-11T06:18:19.723Z,68.50
2017-06-11T06:20:47.250Z,68.86
2017-06-11T06:23:14.809Z,69.14
2017-06-11T06:25:42.332Z,69.28
2017-06-11T06:28:09.872Z,69.10
2017-06-11T06:30:37.454Z,69.32
2017-06-11T06:33:04.993Z,69.30
2017-06-11T06:35:32.528Z,73.12
2017-06-11T06:38:00.103Z,73.94
2017-06-11T06:40:27.636Z,74.14
2017-06-11T06:42:55.169Z,75.08
2017-06-11T06:45:22.760Z,72.27
2017-06-11T06:47:50.516Z,70.99
2017-06-11T06:50:18.127Z,72.93
2017-06-11T06:52:45.789Z,72.40
2017-06-11T06:55:13.573Z,72.89
2017-06-11T06:57:41.106Z,72.18
2017-06-11T07:00:08.791Z,70.86
2017-06-11T07:02:36.328Z,69.93
2017-06-11T07:05:03.915Z,68.66
2017-06-11T07:07:31.550Z,68.41
2017-06-11T07:09:59.082Z,66.45
2017-06-11T07:12:27.285Z,67.12
2017-06-11T07:14:54.890Z,66.36
2017-06-11T07:17:22.429Z,67.35
2017-06-11T07:19:49.966Z,66.91
2017-06-11T07:22:17.552Z,67.37
2017-06-11T07:24:45.083Z,67.10
2017-06-11T07:27:12.619Z,67.60
2017-06-11T07:29:40.686Z,66.36
2017-06-11T07:32:08.274Z,66.98
2017-06-11T07:34:36.186Z,67.19
2017-06-11T07:37:03.726Z,67.36
2017-06-11T07:39:31.304Z,67.83
2017-06-11T07:41:59.450Z,67.21
2017-06-11T07:44:26.982Z,66.51
2017-06-11T07:46:54.914Z,66.76
2017-06-11T07:49:22.450Z,67.16
2017-06-11T07:51:49.985Z,66.99
2017-06-11T07:54:17.961Z,66.88
2017-06-11T07:56:45.884Z,67.07
2017-06-11T07:59:13.784Z,66.46
2017-06-11T08:01:41.345Z,66.71
2017-06-11T08:04:09.338Z,67.41
2017-06-11T08:06:36.879Z,68.57
2017-06-11T08:09:04.490Z,66.08
2017-06-11T08:11:32.026Z,66.37
2017-06-11T08:13:59.589Z,65.61
2017-06-11T08:16:27.170Z,65.69
2017-06-11T08:18:54.711Z,66.83
2017-06-11T08:21:22.556Z,67.19
2017-06-11T08:23:50.257Z,66.88
2017-06-11T08:26:17.834Z,64.57
2017-06-11T08:28:45.378Z,65.47
2017-06-11T08:31:12.975Z,65.75
2017-06-11T08:33:40.532Z,64.94
2017-06-11T08:36:09.379Z,64.39
2017-06-11T08:38:38.144Z,64.39
2017-06-11T08:41:05.727Z,64.81
2017-06-11T08:43:33.273Z,63.97
2017-06-11T08:46:01.321Z,65.40
2017-06-11T08:48:28.899Z,63.43
2017-06-11T08:50:56.446Z,63.51
2017-06-11T08:53:24.110Z,63.68
2017-06-11T08:55:53.647Z,63.04
2017-06-11T08:58:21.758Z,62.01
2017-06-11T09:00:49.358Z,62.54
2017-06-11T09:03:17.392Z,62.48
2017-06-11T09:05:46.010Z,62.32
2017-06-11T09:08:13.613Z,61.95
2017-06-11T09:10:41.294Z,62.88
2017-06-11T09:13:08.925Z,62.42
2017-06-11T09:15:36.844Z,62.55
2017-06-11T09:18:04.794Z,62.35
2017-06-11T09:20:32.345Z,62.27
2017-06-11T09:22:59.943Z,61.89
2017-06-11T09:25:27.686Z,60.77
2017-06-11T09:27:55.585Z,61.07
2017-06-11T09:30:23.162Z,60.92
2017-06-11T09:32:50.717Z,60.66
2017-06-11T09:35:18.260Z,61.51
2017-06-11T09:37:46.429Z,61.62
2017-06-11T09:40:13.970Z,59.97
2017-06-11T09:42:41.551Z,60.38
2017-06-11T09:45:09.137Z,59.89
2017-06-11T09:47:36.945Z,59.98
2017-06-11T09:50:04.491Z,59.16
2017-06-11T09:52:32.065Z,59.93
2017-06-11T09:54:59.611Z,59.85
2017-06-11T09:57:27.159Z,59.34
2017-06-11T09:59:54.745Z,57.67
2017-06-11T10:02:22.329Z,56.13
2017-06-11T10:04:49.879Z,57.37
2017-06-11T10:07:17.415Z,57.66
2017-06-11T10:09:44.990Z,58.01
2017-06-11T10:12:12.539Z,58.55
2017-06-11T10:14:40.101Z,58.30
2017-06-11T10:17:07.687Z,58.66
2017-06-11T10:19:35.320Z,57.99
2017-06-11T10:22:02.928Z,58.62
2017-06-11T10:24:30.530Z,58.83
2017-06-11T10:26:58.090Z,58.32
2017-06-11T10:29:25.633Z,57.29
2017-06-11T10:31:53.205Z,58.53
2017-06-11T10:34:20.767Z,57.46
2017-06-11T10:36:48.309Z,56.67
2017-06-11T10:39:15.882Z,58.32
2017-06-11T10:41:43.415Z,58.47
2017-06-11T10:44:10.981Z,59.77
2017-06-11T10:46:38.573Z,57.93
2017-06-11T10:49:06.113Z,59.31
2017-06-11T10:51:33.651Z,58.35
2017-06-11T10:54:01.245Z,59.79
2017-06-11T10:56:28.809Z,59.21
2017-06-11T10:58:56.345Z,59.41
2017-06-11T11:01:23.930Z,58.10
2017-06-11T11:03:51.466Z,56.74
2017-06-11T11:06:19.002Z,56.83
2017-06-11T11:08:46.625Z,54.41
2017-06-11T11:11:14.186Z,55.15
2017-06-11T11:13:41.734Z,55.54
2017-06-11T11:16:09.294Z,56.29
2017-06-11T11:18:37.293Z,53.74
2017-06-11T11:21:04.874Z,52.84
2017-06-11T11:23:32.450Z,54.89
2017-06-11T11:25:59.986Z,53.20
2017-06-11T11:28:27.538Z,53.83
2017-06-11T11:30:55.102Z,53.83
2017-06-11T11:33:22.657Z,54.36
2017-06-11T11:35:50.469Z,54.24
2017-06-11T11:38:18.043Z,53.20
2017-06-11T11:40:45.583Z,52.55
2017-06-11T11:43:13.346Z,51.87
2017-06-11T11:45:40.937Z,51.56
2017-06-11T11:48:08.477Z,52.73
2017-06-11T11:50:36.056Z,52.75
2017-06-11T11:53:03.631Z,51.94
2017-06-11T11:55:31.214Z,51.32
2017-06-11T11:57:58.758Z,52.68
2017-06-11T12:00:26.467Z,52.58
2017-06-11T12:02:54.061Z,52.25
2017-06-11T12:05:21.700Z,52.75
2017-06-11T12:07:49.325Z,52.53
2017-06-11T12:10:17.725Z,52.39
2017-06-11T12:12:46.010Z,53.60
2017-06-11T12:15:13.583Z,51.78
2017-06-11T12:17:41.122Z,51.88
2017-06-11T12:20:08.685Z,53.67
2017-06-11T12:22:36.288Z,53.87
2017-06-11T12:25:03.828Z,51.93
2017-06-11T12:27:31.373Z,52.36
2017-06-11T12:29:58.952Z,50.98
2017-06-11T12:32:26.927Z,52.75
2017-06-11T12:34:54.513Z,52.85
2017-06-11T12:37:22.056Z,52.63
2017-06-11T12:39:49.631Z,51.68
2017-06-11T12:42:17.170Z,52.28
2017-06-11T12:44:44.714Z,54.20
2017-06-11T12:47:12.302Z,53.63
2017-06-11T12:49:39.830Z,53.79
2017-06-11T12:52:07.380Z,53.41
2017-06-11T12:54:34.966Z,52.75
2017-06-11T12:57:02.489Z,53.85
2017-06-11T12:59:30.061Z,53.65
2017-06-11T13:01:57.635Z,53.59
2017-06-11T13:04:25.168Z,53.50
2017-06-11T13:06:52.698Z,54.11
2017-06-11T13:09:20.290Z,53.06
2017-06-11T13:11:48.424Z,53.03
2017-06-11T13:14:17.978Z,53.08
2017-06-11T13:16:45.894Z,50.69
2017-06-11T13:19:13.562Z,52.64
2017-06-11T13:21:41.118Z,51.47
2017-06-11T13:24:08.681Z,51.70
2017-06-11T13:26:36.246Z,50.51
2017-06-11T13:29:03.785Z,51.83
2017-06-11T13:31:31.354Z,51.70
2017-06-11T13:33:58.889Z,53.54
2017-06-11T13:36:26.417Z,53.86
2017-06-11T13:38:54.009Z,52.21
2017-06-11T13:41:21.543Z,52.33
2017-06-11T13:43:49.075Z,51.84
2017-06-11T13:46:16.670Z,51.60
2017-06-11T13:48:44.289Z,51.16
2017-06-11T13:51:11.814Z,51.63
2017-06-11T13:53:39.394Z,54.10
2017-06-11T13:56:06.931Z,53.04
2017-06-11T13:58:34.474Z,52.30
2017-06-11T14:01:02.046Z,53.37
2017-06-11T14:03:29.635Z,53.90
2017-06-11T14:05:57.199Z,53.44
2017-06-11T14:08:24.801Z,52.51
2017-06-11T14:10:54.078Z,52.75
2017-06-11T14:13:21.901Z,52.49
2017-06-11T14:15:49.483Z,52.49
2017-06-11T14:18:17.245Z,51.35
2017-06-11T14:20:44.777Z,49.76
2017-06-11T14:23:12.374Z,50.84
2017-06-11T14:25:39.933Z,51.09
2017-06-11T14:28:08.269Z,52.31
2017-06-11T14:30:35.837Z,51.70
2017-06-11T14:33:03.382Z,53.05
2017-06-11T14:35:30.923Z,51.24
2017-06-11T14:37:58.497Z,51.49
2017-06-11T14:40:26.134Z,50.98
2017-06-11T14:42:53.688Z,51.55
2017-06-11T14:45:21.266Z,52.49
2017-06-11T14:47:49.104Z,51.68
2017-06-11T14:50:16.646Z,51.84
2017-06-11T14:52:44.301Z,51.79
2017-06-11T14:55:11.830Z,53.06
2017-06-11T14:57:39.369Z,53.69
2017-06-11T15:00:07.603Z,54.03
2017-06-11T15:02:36.146Z,54.02
2017-06-11T15:05:03.689Z,54.24
2017-06-11T15:07:31.283Z,54.37
2017-06-11T15:09:59.219Z,53.80
2017-06-11T15:12:37.272Z,54.01
2017-06-11T15:15:08.561Z,54.78
2017-06-11T15:28:47.314Z,55.67
2017-06-11T15:31:15.153Z,56.33
2017-06-11T15:33:42.685Z,56.39
2017-06-11T15:36:35.180Z,56.06
2017-06-11T15:41:56.311Z,56.78
2017-06-11T15:44:23.869Z,57.14
2017-06-11T15:46:51.413Z,55.12
2017-06-11T15:49:18.985Z,55.50
2017-06-11T15:51:46.532Z,55.70
2017-06-11T15:54:14.061Z,55.13
2017-06-11T15:56:45.822Z,54.27
2017-06-11T15:59:19.473Z,51.24
2017-06-11T16:02:01.559Z,53.13
2017-06-11T16:04:36.929Z,52.68
2017-06-11T16:07:20.205Z,53.41
2017-06-11T16:09:48.574Z,53.11
2017-06-11T16:12:27.959Z,51.46
2017-06-11T16:15:14.166Z,53.07
2017-06-11T16:17:48.958Z,53.76
2017-06-11T16:20:25.586Z,53.63
2017-06-11T16:22:55.897Z,53.56
2017-06-11T16:25:33.891Z,54.09
2017-06-11T16:28:05.147Z,54.41
2017-06-11T16:30:32.894Z,55.86
2017-06-11T16:33:00.437Z,56.65
2017-06-11T16:35:28.550Z,57.57
2017-06-11T16:38:03.427Z,56.43
2017-06-11T16:40:31.091Z,57.66
2017-06-11T16:43:00.009Z,58.08
2017-06-11T16:45:39.868Z,58.97
2017-06-11T16:50:54.838Z,59.15
2017-06-11T16:53:26.138Z,58.94
2017-06-11T16:58:37.309Z,58.54
2017-06-11T17:01:06.861Z,57.59
2017-06-11T17:03:38.982Z,57.13
2017-06-11T17:06:07.404Z,58.45
2017-06-11T17:08:41.563Z,58.70
2017-06-11T17:11:19.761Z,59.20
2017-06-11T17:13:48.682Z,58.64
2017-06-11T17:16:20.716Z,58.40
2017-06-11T17:18:49.489Z,58.81
2017-06-11T17:21:18.066Z,59.15
2017-06-11T17:23:46.553Z,58.94
2017-06-11T17:26:14.171Z,56.76
2017-06-11T17:28:42.221Z,58.20
2017-06-11T17:31:12.530Z,58.32
2017-06-11T17:33:45.902Z,59.27
2017-06-11T17:36:13.677Z,59.33
2017-06-11T17:38:41.310Z,59.87
2017-06-11T17:44:01.642Z,59.79
2017-06-11T17:46:33.128Z,58.47
2017-06-11T17:51:46.937Z,58.63
2017-06-11T17:54:14.740Z,58.94
2017-06-11T17:56:42.432Z,59.11
2017-06-11T17:59:10.804Z,58.74
2017-06-11T18:01:38.415Z,59.58
2017-06-11T18:04:05.990Z,60.63
2017-06-11T18:06:33.601Z,61.39
2017-06-11T18:09:01.766Z,63.04
2017-06-11T18:11:29.340Z,63.14
2017-06-11T18:13:56.913Z,62.72
2017-06-11T18:16:29.372Z,62.84
2017-06-11T18:18:58.286Z,63.02
2017-06-11T18:21:26.205Z,63.17
2017-06-11T18:23:54.724Z,63.86
2017-06-11T18:26:22.364Z,63.97
2017-06-11T18:28:49.914Z,64.31
2017-06-11T18:31:22.331Z,64.14
2017-06-11T18:33:52.432Z,64.83
2017-06-11T18:36:21.770Z,64.92
2017-06-11T18:38:52.344Z,63.58
2017-06-11T18:41:27.158Z,63.92
2017-06-11T18:43:58.217Z,63.95
2017-06-11T18:46:29.056Z,63.71
2017-06-11T18:51:57.277Z,63.25
2017-06-11T18:54:29.030Z,63.58
2017-06-11T19:02:20.010Z,64.42
2017-06-11T19:04:48.206Z,63.84
2017-06-11T19:07:16.085Z,62.84
2017-06-11T19:09:43.736Z,62.55
2017-06-11T19:12:12.199Z,61.94
2017-06-11T19:14:39.787Z,63.17
2017-06-11T19:17:07.666Z,62.96
2017-06-11T19:19:35.255Z,61.89
2017-06-11T19:22:09.709Z,62.91
2017-06-11T19:24:41.560Z,62.53
2017-06-11T19:27:09.115Z,62.02
2017-06-11T19:37:57.388Z,60.58
2017-06-11T19:40:33.798Z,60.68
2017-06-11T19:43:23.956Z,60.41
2017-06-11T19:46:00.425Z,59.30
2017-06-11T19:48:35.210Z,60.55
2017-06-11T19:53:45.921Z,60.72
2017-06-11T19:56:18.283Z,60.42
2017-06-11T19:58:57.522Z,60.40
2017-06-11T20:01:36.667Z,60.88
2017-06-11T20:04:14.358Z,61.00
2017-06-11T20:09:59.035Z,61.67
2017-06-11T20:12:26.661Z,61.85
2017-06-11T20:14:54.218Z,62.13
2017-06-11T20:17:21.992Z,62.55
2017-06-11T20:19:49.574Z,61.79
2017-06-11T20:22:17.342Z,61.66
2017-06-11T20:24:44.918Z,61.41
2017-06-11T20:27:16.554Z,61.37
2017-06-11T20:29:45.341Z,61.19
2017-06-11T20:32:13.874Z,60.99
2017-06-11T20:34:41.835Z,61.25
2017-06-11T20:37:09.402Z,61.53
2017-06-11T20:39:36.993Z,61.88
2017-06-11T20:42:04.553Z,61.35
2017-06-11T20:44:33.769Z,61.61
2017-06-11T20:47:04.698Z,62.08
2017-06-11T20:49:38.149Z,61.73
2017-06-11T20:52:24.321Z,61.83
2017-06-11T20:54:59.748Z,62.27
2017-06-11T20:57:27.345Z,61.80
2017-06-11T20:59:54.893Z,61.41
2017-06-11T21:02:39.478Z,61.65
2017-06-11T21:05:08.762Z,61.44
2017-06-11T21:07:59.421Z,61.50
2017-06-11T21:10:40.256Z,62.12
2017-06-11T21:13:08.047Z,62.67
2017-06-11T21:15:36.893Z,63.11
2017-06-11T21:18:19.663Z,63.15
2017-06-11T21:20:47.631Z,62.49
2017-06-11T21:23:15.167Z,62.26
2017-06-11T21:25:42.745Z,61.92
2017-06-11T21:28:12.003Z,61.97
2017-06-11T21:31:11.766Z,62.46
2017-06-11T21:33:39.315Z,62.41
2017-06-11T21:36:07.129Z,62.69
2017-06-11T21:38:34.934Z,62.61
2017-06-11T21:41:02.492Z,63.14
2017-06-11T21:43:30.149Z,63.38
2017-06-11T21:45:57.731Z,63.57
2017-06-11T21:48:25.407Z,63.83
2017-06-11T21:50:52.981Z,63.79
2017-06-11T21:53:21.309Z,63.40
2017-06-11T21:55:48.904Z,63.00
2017-06-11T21:58:17.345Z,62.99
2017-06-11T22:00:44.952Z,64.19
2017-06-11T22:03:12.822Z,64.02
2017-06-11T22:05:40.589Z,63.44
2017-06-11T22:08:08.345Z,63.67
2017-06-11T22:10:36.005Z,63.83
2017-06-11T22:13:04.253Z,63.73
2017-06-11T22:15:32.025Z,63.73
2017-06-11T22:18:00.045Z,63.42
2017-06-11T22:20:27.618Z,63.11
2017-06-11T22:22:55.255Z,63.57
2017-06-11T22:25:22.834Z,63.71
2017-06-11T22:27:50.458Z,64.29
2017-06-11T22:30:19.006Z,63.80
2017-06-11T22:32:46.581Z,64.14
2017-06-11T22:35:14.142Z,63.92
2017-06-11T22:37:41.846Z,64.32
2017-06-11T22:40:09.456Z,65.07
2017-06-11T22:42:37.136Z,64.56
2017-06-11T22:45:04.772Z,64.95
2017-06-11T22:47:32.322Z,66.49
2017-06-11T22:49:59.871Z,66.58
2017-06-11T22:52:27.454Z,66.23
2017-06-11T22:54:54.988Z,66.03
2017-06-11T22:57:22.531Z,65.47
2017-06-11T22:59:50.116Z,65.68
2017-06-11T23:02:17.780Z,67.56
2017-06-11T23:04:45.347Z,67.13
2017-06-11T23:07:12.885Z,66.40
2017-06-11T23:09:40.465Z,66.23
2017-06-11T23:12:08.068Z,67.20
2017-06-11T23:14:35.627Z,66.28
2017-06-11T23:17:03.206Z,67.19
2017-06-11T23:19:30.741Z,67.05
2017-06-11T23:21:58.282Z,66.98
2017-06-11T23:24:25.891Z,68.25
2017-06-11T23:26:53.443Z,67.74
2017-06-11T23:29:21.082Z,67.62
2017-06-11T23:31:48.728Z,67.46
2017-06-11T23:34:16.291Z,66.48
2017-06-11T23:36:43.933Z,66.25
2017-06-11T23:39:11.622Z,65.97
2017-06-11T23:41:39.186Z,66.02
2017-06-11T23:44:06.753Z,66.96
2017-06-11T23:46:34.454Z,67.09
2017-06-11T23:49:02.152Z,67.30
2017-06-11T23:51:29.815Z,67.17
2017-06-11T23:53:57.441Z,70.42
2017-06-11T23:56:25.261Z,70.11
2017-06-11T23:58:52.841Z,68.91
